Terminal Aerodrome Forecast
Issued by NWS

Home | Current Version | Previous Version | Graphics & Text | Print | Product List | Glossary On
Versions: 1 2 3 4 5 6 7 8 9 10 11 12 13 14 15 16 17
973
FTUS43 KICT 082328
TAFSLN
TAF
KSLN 082328Z 0900/0924 32020G27KT P6SM SCT250
     FM090100 31016G23KT P6SM SCT250
     FM090600 30013KT P6SM SCT250
     FM091400 33014KT P6SM BKN100
     FM091600 34018G25KT P6SM BKN100=

USA.gov is the U.S. government's official web portal to all federal, state and local government web resources and services.